sensor_id;sensor_type;location;lat;lon;timestamp;pressure;altitude;pressure_sealevel;temperature;humidity
63773;BME280;49919;53.612;55.898;2022-07-01T00:00:06;98920.13;;;14.66;57.82
63773;BME280;49919;53.612;55.898;2022-07-01T00:02:02;98922.28;;;14.59;58.13
63773;BME280;49919;53.612;55.898;2022-07-01T00:03:52;98921.50;;;14.53;58.56
63773;BME280;49919;53.612;55.898;2022-07-01T00:05:41;98922.31;;;14.54;58.31
63773;BME280;49919;53.612;55.898;2022-07-01T00:07:31;98920.16;;;14.61;58.51
63773;BME280;49919;53.612;55.898;2022-07-01T00:09:20;98928.41;;;14.69;58.37
63773;BME280;49919;53.612;55.898;2022-07-01T00:11:10;98925.41;;;14.76;57.87
63773;BME280;49919;53.612;55.898;2022-07-01T00:12:59;98932.63;;;14.81;57.76
63773;BME280;49919;53.612;55.898;2022-07-01T00:14:48;98932.09;;;14.84;57.68
63773;BME280;49919;53.612;55.898;2022-07-01T00:16:38;98918.69;;;14.89;57.51
63773;BME280;49919;53.612;55.898;2022-07-01T00:18:27;98921.59;;;14.92;57.51
63773;BME280;49919;53.612;55.898;2022-07-01T00:20:16;98918.06;;;14.97;57.33
63773;BME280;49919;53.612;55.898;2022-07-01T00:22:06;98914.56;;;15.01;57.16
63773;BME280;49919;53.612;55.898;2022-07-01T00:23:56;98916.16;;;15.07;56.92
63773;BME280;49919;53.612;55.898;2022-07-01T00:25:46;98916.41;;;15.11;56.82
63773;BME280;49919;53.612;55.898;2022-07-01T00:27:39;98911.84;;;15.12;56.72
63773;BME280;49919;53.612;55.898;2022-07-01T00:29:28;98902.47;;;15.14;56.66
63773;BME280;49919;53.612;55.898;2022-07-01T00:31:18;98914.81;;;15.10;56.80
63773;BME280;49919;53.612;55.898;2022-07-01T00:33:07;98910.25;;;15.11;56.73
63773;BME280;49919;53.612;55.898;2022-07-01T00:34:57;98903.28;;;15.09;56.79
63773;BME280;49919;53.612;55.898;2022-07-01T00:36:46;98917.19;;;15.12;56.88
63773;BME280;49919;53.612;55.898;2022-07-01T00:38:35;98931.13;;;15.14;56.79
63773;BME280;49919;53.612;55.898;2022-07-01T00:40:25;98926.31;;;15.11;56.47
63773;BME280;49919;53.612;55.898;2022-07-01T00:42:14;98922.56;;;15.12;56.66
63773;BME280;49919;53.612;55.898;2022-07-01T00:44:03;98919.81;;;15.17;56.63
63773;BME280;49919;53.612;55.898;2022-07-01T00:45:53;98930.25;;;15.18;56.64
63773;BME280;49919;53.612;55.898;2022-07-01T00:47:43;98926.78;;;15.18;56.65
63773;BME280;49919;53.612;55.898;2022-07-01T00:49:32;98926.22;;;15.21;56.41
63773;BME280;49919;53.612;55.898;2022-07-01T00:51:21;98924.09;;;15.18;56.38
63773;BME280;49919;53.612;55.898;2022-07-01T00:53:13;98944.50;;;15.14;56.58
63773;BME280;49919;53.612;55.898;2022-07-01T00:55:03;98924.47;;;15.06;56.79
63773;BME280;49919;53.612;55.898;2022-07-01T00:56:53;98930.13;;;14.99;57.35
63773;BME280;49919;53.612;55.898;2022-07-01T00:58:42;98930.63;;;15.01;57.19
63773;BME280;49919;53.612;55.898;2022-07-01T01:00:32;98931.41;;;15.07;57.23
63773;BME280;49919;53.612;55.898;2022-07-01T01:02:21;98935.41;;;15.15;56.99
63773;BME280;49919;53.612;55.898;2022-07-01T01:04:10;98930.22;;;15.23;56.69
63773;BME280;49919;53.612;55.898;2022-07-01T01:06:00;98937.72;;;15.26;56.53
63773;BME280;49919;53.612;55.898;2022-07-01T01:07:49;98936.88;;;15.31;56.58
63773;BME280;49919;53.612;55.898;2022-07-01T01:09:39;98936.34;;;15.34;56.41
63773;BME280;49919;53.612;55.898;2022-07-01T01:11:28;98947.59;;;15.31;56.63
63773;BME280;49919;53.612;55.898;2022-07-01T01:13:19;98936.88;;;15.31;56.54
63773;BME280;49919;53.612;55.898;2022-07-01T01:15:08;98941.44;;;15.30;56.57
63773;BME280;49919;53.612;55.898;2022-07-01T01:16:57;98933.41;;;15.30;56.89
63773;BME280;49919;53.612;55.898;2022-07-01T01:18:47;98943.84;;;15.32;56.65
63773;BME280;49919;53.612;55.898;2022-07-01T01:20:37;98950.25;;;15.36;56.47
63773;BME280;49919;53.612;55.898;2022-07-01T01:22:26;98958.78;;;15.38;56.30
63773;BME280;49919;53.612;55.898;2022-07-01T01:24:15;98972.94;;;15.43;56.06
63773;BME280;49919;53.612;55.898;2022-07-01T01:26:14;98982.31;;;15.46;56.63
63773;BME280;49919;53.612;55.898;2022-07-01T01:28:03;98981.34;;;15.32;56.97
63773;BME280;49919;53.612;55.898;2022-07-01T01:29:53;98965.06;;;15.18;57.60
63773;BME280;49919;53.612;55.898;2022-07-01T01:31:43;98960.59;;;15.08;57.93
63773;BME280;49919;53.612;55.898;2022-07-01T01:33:32;98977.19;;;15.05;58.35
63773;BME280;49919;53.612;55.898;2022-07-01T01:35:21;98977.72;;;15.13;58.24
63773;BME280;49919;53.612;55.898;2022-07-01T01:37:11;98987.56;;;15.17;57.84
63773;BME280;49919;53.612;55.898;2022-07-01T01:39:00;98992.13;;;15.17;58.04
63773;BME280;49919;53.612;55.898;2022-07-01T01:41:05;98984.13;;;15.12;58.35
63773;BME280;49919;53.612;55.898;2022-07-01T01:42:54;98969.69;;;15.07;58.57
63773;BME280;49919;53.612;55.898;2022-07-01T01:44:44;98969.41;;;15.14;58.60
63773;BME280;49919;53.612;55.898;2022-07-01T01:46:33;98969.06;;;15.26;58.24
63773;BME280;49919;53.612;55.898;2022-07-01T01:48:23;98984.00;;;15.37;57.92
63773;BME280;49919;53.612;55.898;2022-07-01T01:50:12;98990.06;;;15.48;57.07
63773;BME280;49919;53.612;55.898;2022-07-01T01:52:03;98995.13;;;15.54;56.30
63773;BME280;49919;53.612;55.898;2022-07-01T01:53:52;98981.47;;;15.56;56.37
63773;BME280;49919;53.612;55.898;2022-07-01T01:55:42;98982.00;;;15.58;56.48
63773;BME280;49919;53.612;55.898;2022-07-01T01:57:31;98971.75;;;15.65;56.43
63773;BME280;49919;53.612;55.898;2022-07-01T01:59:21;98974.31;;;15.80;56.48
63773;BME280;49919;53.612;55.898;2022-07-01T02:01:10;98980.06;;;15.97;56.06
63773;BME280;49919;53.612;55.898;2022-07-01T02:02:59;98983.38;;;16.13;55.50
63773;BME280;49919;53.612;55.898;2022-07-01T02:04:49;98988.16;;;16.21;54.99
63773;BME280;49919;53.612;55.898;2022-07-01T02:06:38;98993.41;;;16.31;54.47
63773;BME280;49919;53.612;55.898;2022-07-01T02:08:29;98992.44;;;16.46;53.36
63773;BME280;49919;53.612;55.898;2022-07-01T02:10:19;98999.13;;;16.49;52.68
63773;BME280;49919;53.612;55.898;2022-07-01T02:12:09;99001.97;;;16.57;52.87
63773;BME280;49919;53.612;55.898;2022-07-01T02:13:58;98996.84;;;16.61;52.08
63773;BME280;49919;53.612;55.898;2022-07-01T02:15:47;99000.00;;;16.68;52.07
63773;BME280;49919;53.612;55.898;2022-07-01T02:17:38;99008.50;;;16.75;51.76
63773;BME280;49919;53.612;55.898;2022-07-01T02:19:27;99003.91;;;16.81;51.43
63773;BME280;49919;53.612;55.898;2022-07-01T02:21:17;99003.75;;;16.91;51.19
63773;BME280;49919;53.612;55.898;2022-07-01T02:23:05;99006.09;;;16.97;50.55
63773;BME280;49919;53.612;55.898;2022-07-01T02:24:55;99014.47;;;17.14;50.60
63773;BME280;49919;53.612;55.898;2022-07-01T02:26:44;99017.25;;;17.28;50.00
63773;BME280;49919;53.612;55.898;2022-07-01T02:28:33;99016.81;;;17.40;49.60
63773;BME280;49919;53.612;55.898;2022-07-01T02:30:22;99016.66;;;17.50;49.67
63773;BME280;49919;53.612;55.898;2022-07-01T02:32:11;99013.81;;;17.60;49.50
63773;BME280;49919;53.612;55.898;2022-07-01T02:36:08;99015.31;;;17.71;48.70
63773;BME280;49919;53.612;55.898;2022-07-01T02:37:57;99016.22;;;17.80;48.39
63773;BME280;49919;53.612;55.898;2022-07-01T02:39:47;99016.44;;;17.84;48.26
63773;BME280;49919;53.612;55.898;2022-07-01T02:41:36;99019.56;;;17.91;48.22
63773;BME280;49919;53.612;55.898;2022-07-01T02:43:45;99030.63;;;18.03;47.97
63773;BME280;49919;53.612;55.898;2022-07-01T02:45:34;99025.44;;;17.93;47.75
63773;BME280;49919;53.612;55.898;2022-07-01T02:47:24;99020.28;;;17.97;47.90
63773;BME280;49919;53.612;55.898;2022-07-01T02:49:12;99021.78;;;18.03;47.55
63773;BME280;49919;53.612;55.898;2022-07-01T02:51:03;99024.59;;;18.11;47.57
63773;BME280;49919;53.612;55.898;2022-07-01T02:52:53;99013.34;;;18.23;47.40
63773;BME280;49919;53.612;55.898;2022-07-01T02:54:43;99027.16;;;18.35;47.34
63773;BME280;49919;53.612;55.898;2022-07-01T02:56:32;99027.53;;;18.42;47.06
63773;BME280;49919;53.612;55.898;2022-07-01T02:58:22;99019.97;;;18.44;46.66
63773;BME280;49919;53.612;55.898;2022-07-01T03:00:14;99020.28;;;18.57;46.73
63773;BME280;49919;53.612;55.898;2022-07-01T03:02:04;99014.22;;;18.65;46.40
63773;BME280;49919;53.612;55.898;2022-07-01T03:03:53;99018.91;;;18.73;46.43
63773;BME280;49919;53.612;55.898;2022-07-01T03:05:43;99011.56;;;18.78;46.46
63773;BME280;49919;53.612;55.898;2022-07-01T03:07:32;99012.94;;;18.76;46.38
63773;BME280;49919;53.612;55.898;2022-07-01T03:09:23;99012.81;;;18.67;47.03
63773;BME280;49919;53.612;55.898;2022-07-01T03:11:13;99017.22;;;18.77;47.16
63773;BME280;49919;53.612;55.898;2022-07-01T03:13:02;99015.53;;;18.81;47.24
63773;BME280;49919;53.612;55.898;2022-07-01T03:14:52;99024.00;;;18.88;47.23
63773;BME280;49919;53.612;55.898;2022-07-01T03:16:42;99039.38;;;19.01;46.87
63773;BME280;49919;53.612;55.898;2022-07-01T03:18:31;99038.66;;;19.09;46.50
63773;BME280;49919;53.612;55.898;2022-07-01T03:20:21;99031.41;;;19.32;46.32
63773;BME280;49919;53.612;55.898;2022-07-01T03:22:10;99036.88;;;19.55;45.51
63773;BME280;49919;53.612;55.898;2022-07-01T03:23:59;99045.56;;;19.65;45.48
63773;BME280;49919;53.612;55.898;2022-07-01T03:25:48;99036.72;;;19.73;44.96
63773;BME280;49919;53.612;55.898;2022-07-01T03:27:37;99037.91;;;19.81;44.42
63773;BME280;49919;53.612;55.898;2022-07-01T03:29:29;99044.91;;;19.82;44.58
63773;BME280;49919;53.612;55.898;2022-07-01T03:31:18;99044.28;;;19.85;44.56
63773;BME280;49919;53.612;55.898;2022-07-01T03:33:07;99049.88;;;19.89;44.47
63773;BME280;49919;53.612;55.898;2022-07-01T03:34:57;99057.97;;;19.89;44.51
63773;BME280;49919;53.612;55.898;2022-07-01T03:36:46;99060.41;;;19.99;44.31
63773;BME280;49919;53.612;55.898;2022-07-01T03:38:36;99067.97;;;20.10;44.27
63773;BME280;49919;53.612;55.898;2022-07-01T03:40:25;99058.06;;;20.28;44.22
63773;BME280;49919;53.612;55.898;2022-07-01T03:42:14;99058.81;;;20.42;43.86
63773;BME280;49919;53.612;55.898;2022-07-01T03:44:04;99057.22;;;20.41;43.66
63773;BME280;49919;53.612;55.898;2022-07-01T03:45:54;99068.25;;;20.53;43.22
63773;BME280;49919;53.612;55.898;2022-07-01T03:47:44;99073.69;;;20.62;43.30
63773;BME280;49919;53.612;55.898;2022-07-01T03:49:34;99072.00;;;20.75;43.03
63773;BME280;49919;53.612;55.898;2022-07-01T03:51:24;99078.44;;;20.96;42.98
63773;BME280;49919;53.612;55.898;2022-07-01T03:53:13;99073.97;;;21.00;42.34
63773;BME280;49919;53.612;55.898;2022-07-01T03:55:21;99080.34;;;21.04;41.78
63773;BME280;49919;53.612;55.898;2022-07-01T03:57:10;99078.63;;;21.08;41.88
63773;BME280;49919;53.612;55.898;2022-07-01T03:58:59;99077.88;;;21.16;41.69
63773;BME280;49919;53.612;55.898;2022-07-01T04:00:48;99088.69;;;21.16;41.35
63773;BME280;49919;53.612;55.898;2022-07-01T04:02:37;99089.31;;;21.13;41.49
63773;BME280;49919;53.612;55.898;2022-07-01T04:04:26;99087.88;;;21.16;41.47
63773;BME280;49919;53.612;55.898;2022-07-01T04:06:15;99086.63;;;21.22;41.21
63773;BME280;49919;53.612;55.898;2022-07-01T04:08:06;99086.53;;;21.36;40.84
63773;BME280;49919;53.612;55.898;2022-07-01T04:10:00;99085.28;;;21.42;40.39
63773;BME280;49919;53.612;55.898;2022-07-01T04:11:49;99088.59;;;21.47;40.54
63773;BME280;49919;53.612;55.898;2022-07-01T04:13:38;99086.22;;;21.46;40.20
63773;BME280;49919;53.612;55.898;2022-07-01T04:15:28;99089.22;;;21.44;40.32
63773;BME280;49919;53.612;55.898;2022-07-01T04:17:17;99092.59;;;21.59;40.46
63773;BME280;49919;53.612;55.898;2022-07-01T04:19:07;99091.50;;;21.60;40.35
63773;BME280;49919;53.612;55.898;2022-07-01T04:20:57;99085.59;;;21.58;40.18
63773;BME280;49919;53.612;55.898;2022-07-01T04:23:05;99083.22;;;21.65;39.98
63773;BME280;49919;53.612;55.898;2022-07-01T04:24:54;99089.09;;;21.58;39.87
63773;BME280;49919;53.612;55.898;2022-07-01T04:26:44;99075.59;;;21.58;39.95
63773;BME280;49919;53.612;55.898;2022-07-01T04:28:33;99082.25;;;21.52;39.83
63773;BME280;49919;53.612;55.898;2022-07-01T04:30:22;99088.13;;;21.45;40.01
63773;BME280;49919;53.612;55.898;2022-07-01T04:32:11;99090.19;;;21.40;40.37
63773;BME280;49919;53.612;55.898;2022-07-01T04:34:01;99101.94;;;21.44;40.26
63773;BME280;49919;53.612;55.898;2022-07-01T04:35:50;99109.44;;;21.47;40.15
63773;BME280;49919;53.612;55.898;2022-07-01T04:37:40;99118.34;;;21.39;40.01
63773;BME280;49919;53.612;55.898;2022-07-01T04:39:30;99120.50;;;21.19;39.92
63773;BME280;49919;53.612;55.898;2022-07-01T04:41:19;99123.88;;;20.94;40.37
63773;BME280;49919;53.612;55.898;2022-07-01T04:43:27;99122.34;;;20.71;41.12
63773;BME280;49919;53.612;55.898;2022-07-01T04:45:17;99111.66;;;20.66;41.54
63773;BME280;49919;53.612;55.898;2022-07-01T04:47:06;99116.59;;;20.64;41.38
63773;BME280;49919;53.612;55.898;2022-07-01T04:48:55;99116.69;;;20.59;41.11
63773;BME280;49919;53.612;55.898;2022-07-01T04:50:45;99109.88;;;20.61;41.18
63773;BME280;49919;53.612;55.898;2022-07-01T04:52:34;99112.47;;;20.66;41.19
63773;BME280;49919;53.612;55.898;2022-07-01T04:54:23;99112.09;;;20.59;41.30
63773;BME280;49919;53.612;55.898;2022-07-01T04:56:12;99118.66;;;20.67;41.53
63773;BME280;49919;53.612;55.898;2022-07-01T04:58:02;99119.84;;;20.83;41.22
63773;BME280;49919;53.612;55.898;2022-07-01T04:59:51;99113.88;;;20.95;40.97
63773;BME280;49919;53.612;55.898;2022-07-01T05:01:43;99110.75;;;21.10;40.48
63773;BME280;49919;53.612;55.898;2022-07-01T05:03:33;99122.13;;;21.20;40.21
63773;BME280;49919;53.612;55.898;2022-07-01T05:05:23;99116.72;;;21.29;40.13
63773;BME280;49919;53.612;55.898;2022-07-01T05:07:12;99122.97;;;21.38;39.83
63773;BME280;49919;53.612;55.898;2022-07-01T05:09:17;99116.13;;;21.49;39.24
63773;BME280;49919;53.612;55.898;2022-07-01T05:11:06;99113.75;;;21.48;39.10
63773;BME280;49919;53.612;55.898;2022-07-01T05:12:55;99113.59;;;21.53;39.07
63773;BME280;49919;53.612;55.898;2022-07-01T05:14:44;99115.50;;;21.52;39.19
63773;BME280;49919;53.612;55.898;2022-07-01T05:16:34;99118.66;;;21.46;39.64
63773;BME280;49919;53.612;55.898;2022-07-01T05:18:23;99121.22;;;21.51;39.36
63773;BME280;49919;53.612;55.898;2022-07-01T05:20:31;99131.13;;;21.64;39.13
63773;BME280;49919;53.612;55.898;2022-07-01T05:22:39;99124.78;;;21.77;39.25
63773;BME280;49919;53.612;55.898;2022-07-01T05:24:29;99126.84;;;21.89;38.90
63773;BME280;49919;53.612;55.898;2022-07-01T05:26:19;99118.41;;;21.82;38.90
63773;BME280;49919;53.612;55.898;2022-07-01T05:28:09;99121.09;;;21.73;39.18
63773;BME280;49919;53.612;55.898;2022-07-01T05:29:58;99111.06;;;21.74;38.85
63773;BME280;49919;53.612;55.898;2022-07-01T05:31:47;99117.91;;;21.71;38.87
63773;BME280;49919;53.612;55.898;2022-07-01T05:33:37;99114.72;;;21.69;39.01
63773;BME280;49919;53.612;55.898;2022-07-01T05:35:26;99112.97;;;21.73;38.88
63773;BME280;49919;53.612;55.898;2022-07-01T05:37:15;99132.56;;;21.87;38.54
63773;BME280;49919;53.612;55.898;2022-07-01T05:39:06;99128.59;;;21.76;38.54
63773;BME280;49919;53.612;55.898;2022-07-01T05:40:55;99124.59;;;21.74;38.78
63773;BME280;49919;53.612;55.898;2022-07-01T05:42:48;99120.94;;;21.78;38.75
63773;BME280;49919;53.612;55.898;2022-07-01T05:44:37;99115.09;;;22.02;38.91
63773;BME280;49919;53.612;55.898;2022-07-01T05:46:26;99121.47;;;22.15;38.52
63773;BME280;49919;53.612;55.898;2022-07-01T05:48:16;99118.25;;;22.30;38.58
63773;BME280;49919;53.612;55.898;2022-07-01T05:50:05;99118.88;;;22.44;38.04
63773;BME280;49919;53.612;55.898;2022-07-01T05:51:54;99122.53;;;22.48;38.29
63773;BME280;49919;53.612;55.898;2022-07-01T05:53:43;99124.25;;;22.53;38.17
63773;BME280;49919;53.612;55.898;2022-07-01T05:55:32;99113.41;;;22.62;38.05
63773;BME280;49919;53.612;55.898;2022-07-01T05:57:22;99122.03;;;22.64;38.01
63773;BME280;49919;53.612;55.898;2022-07-01T05:59:11;99116.72;;;22.76;38.12
63773;BME280;49919;53.612;55.898;2022-07-01T06:01:01;99120.53;;;22.92;38.01
63773;BME280;49919;53.612;55.898;2022-07-01T06:02:50;99124.28;;;23.08;38.01
63773;BME280;49919;53.612;55.898;2022-07-01T06:04:41;99124.84;;;23.22;37.76
63773;BME280;49919;53.612;55.898;2022-07-01T06:06:31;99119.25;;;23.28;37.69
63773;BME280;49919;53.612;55.898;2022-07-01T06:08:20;99111.44;;;23.26;37.94
63773;BME280;49919;53.612;55.898;2022-07-01T06:10:10;99113.72;;;23.45;37.96
63773;BME280;49919;53.612;55.898;2022-07-01T06:11:59;99117.03;;;23.50;37.46
63773;BME280;49919;53.612;55.898;2022-07-01T06:13:48;99113.91;;;23.40;37.47
63773;BME280;49919;53.612;55.898;2022-07-01T06:15:37;99117.06;;;23.42;37.53
63773;BME280;49919;53.612;55.898;2022-07-01T06:17:27;99119.13;;;23.53;37.69
63773;BME280;49919;53.612;55.898;2022-07-01T06:19:16;99123.09;;;23.56;37.81
63773;BME280;49919;53.612;55.898;2022-07-01T06:21:05;99122.97;;;23.44;37.83
63773;BME280;49919;53.612;55.898;2022-07-01T06:22:55;99120.72;;;23.46;37.70
63773;BME280;49919;53.612;55.898;2022-07-01T06:24:44;99126.91;;;23.25;38.04
63773;BME280;49919;53.612;55.898;2022-07-01T06:26:33;99127.31;;;23.07;38.37
63773;BME280;49919;53.612;55.898;2022-07-01T06:28:23;99136.59;;;22.97;38.62
63773;BME280;49919;53.612;55.898;2022-07-01T06:30:15;99138.50;;;23.05;38.78
63773;BME280;49919;53.612;55.898;2022-07-01T06:32:04;99136.59;;;22.97;39.03
63773;BME280;49919;53.612;55.898;2022-07-01T06:33:54;99135.06;;;22.79;39.45
63773;BME280;49919;53.612;55.898;2022-07-01T06:35:44;99132.34;;;22.79;39.74
63773;BME280;49919;53.612;55.898;2022-07-01T06:37:33;99136.44;;;23.02;40.07
63773;BME280;49919;53.612;55.898;2022-07-01T06:39:24;99137.75;;;23.25;39.57
63773;BME280;49919;53.612;55.898;2022-07-01T06:41:14;99132.38;;;23.46;39.14
63773;BME280;49919;53.612;55.898;2022-07-01T06:43:16;99131.59;;;23.75;38.78
63773;BME280;49919;53.612;55.898;2022-07-01T06:45:05;99137.31;;;24.03;38.56
63773;BME280;49919;53.612;55.898;2022-07-01T06:46:55;99138.94;;;24.16;37.88
63773;BME280;49919;53.612;55.898;2022-07-01T06:48:44;99138.88;;;24.25;37.35
63773;BME280;49919;53.612;55.898;2022-07-01T06:50:33;99139.66;;;24.25;37.44
63773;BME280;49919;53.612;55.898;2022-07-01T06:52:22;99141.53;;;24.34;37.21
63773;BME280;49919;53.612;55.898;2022-07-01T06:54:11;99136.69;;;24.39;37.63
63773;BME280;49919;53.612;55.898;2022-07-01T06:56:01;99136.03;;;24.54;37.28
63773;BME280;49919;53.612;55.898;2022-07-01T06:57:50;99139.41;;;24.84;36.99
63773;BME280;49919;53.612;55.898;2022-07-01T06:59:39;99127.69;;;25.05;36.37
63773;BME280;49919;53.612;55.898;2022-07-01T07:01:28;99141.16;;;25.25;36.17
63773;BME280;49919;53.612;55.898;2022-07-01T07:03:18;99133.00;;;25.38;36.20
63773;BME280;49919;53.612;55.898;2022-07-01T07:05:07;99135.72;;;25.50;35.54
63773;BME280;49919;53.612;55.898;2022-07-01T07:06:56;99141.16;;;25.50;36.08
63773;BME280;49919;53.612;55.898;2022-07-01T07:08:46;99142.94;;;25.58;35.61
63773;BME280;49919;53.612;55.898;2022-07-01T07:10:35;99148.53;;;25.74;35.49
63773;BME280;49919;53.612;55.898;2022-07-01T07:12:25;99155.94;;;26.01;33.87
63773;BME280;49919;53.612;55.898;2022-07-01T07:14:14;99141.97;;;26.03;33.89
63773;BME280;49919;53.612;55.898;2022-07-01T07:16:04;99143.88;;;26.14;34.15
63773;BME280;49919;53.612;55.898;2022-07-01T07:17:53;99150.50;;;26.29;34.24
63773;BME280;49919;53.612;55.898;2022-07-01T07:19:46;99143.31;;;26.49;33.75
63773;BME280;49919;53.612;55.898;2022-07-01T07:21:35;99148.94;;;26.40;33.01
63773;BME280;49919;53.612;55.898;2022-07-01T07:23:24;99146.38;;;26.47;32.75
63773;BME280;49919;53.612;55.898;2022-07-01T07:25:14;99144.78;;;26.46;32.64
63773;BME280;49919;53.612;55.898;2022-07-01T07:27:03;99151.19;;;26.38;33.15
63773;BME280;49919;53.612;55.898;2022-07-01T07:28:52;99149.28;;;26.39;33.40
63773;BME280;49919;53.612;55.898;2022-07-01T07:30:42;99163.72;;;26.55;32.86
63773;BME280;49919;53.612;55.898;2022-07-01T07:32:30;99155.75;;;26.62;32.69
63773;BME280;49919;53.612;55.898;2022-07-01T07:34:19;99153.47;;;26.80;32.57
63773;BME280;49919;53.612;55.898;2022-07-01T07:36:09;99158.38;;;27.02;32.14
63773;BME280;49919;53.612;55.898;2022-07-01T07:37:58;99153.09;;;27.25;31.93
63773;BME280;49919;53.612;55.898;2022-07-01T07:39:47;99156.16;;;27.23;31.71
63773;BME280;49919;53.612;55.898;2022-07-01T07:41:36;99155.63;;;27.34;31.49
63773;BME280;49919;53.612;55.898;2022-07-01T07:43:25;99160.91;;;27.42;31.29
63773;BME280;49919;53.612;55.898;2022-07-01T07:45:14;99155.00;;;27.40;31.16
63773;BME280;49919;53.612;55.898;2022-07-01T07:47:03;99164.50;;;27.30;31.06
63773;BME280;49919;53.612;55.898;2022-07-01T07:48:53;99171.31;;;27.05;31.19
63773;BME280;49919;53.612;55.898;2022-07-01T07:50:42;99160.13;;;26.67;31.86
63773;BME280;49919;53.612;55.898;2022-07-01T07:52:32;99154.66;;;26.51;32.25
63773;BME280;49919;53.612;55.898;2022-07-01T07:54:21;99168.84;;;26.56;32.06
63773;BME280;49919;53.612;55.898;2022-07-01T07:56:10;99163.38;;;26.56;31.55
63773;BME280;49919;53.612;55.898;2022-07-01T07:58:00;99161.09;;;26.58;31.99
63773;BME280;49919;53.612;55.898;2022-07-01T07:59:49;99160.69;;;26.72;31.94
63773;BME280;49919;53.612;55.898;2022-07-01T08:01:39;99156.78;;;27.01;31.66
63773;BME280;49919;53.612;55.898;2022-07-01T08:03:28;99157.91;;;27.31;31.53
63773;BME280;49919;53.612;55.898;2022-07-01T08:05:17;99152.59;;;27.70;31.51
63773;BME280;49919;53.612;55.898;2022-07-01T08:07:06;99145.72;;;27.95;30.43
63773;BME280;49919;53.612;55.898;2022-07-01T08:08:56;99143.78;;;27.96;30.32
63773;BME280;49919;53.612;55.898;2022-07-01T08:10:45;99158.94;;;27.93;30.50
63773;BME280;49919;53.612;55.898;2022-07-01T08:12:34;99149.22;;;27.77;30.70
63773;BME280;49919;53.612;55.898;2022-07-01T08:14:33;99151.84;;;27.89;30.50
63773;BME280;49919;53.612;55.898;2022-07-01T08:16:23;99143.78;;;28.15;30.13
63773;BME280;49919;53.612;55.898;2022-07-01T08:18:12;99162.97;;;28.35;29.91
63773;BME280;49919;53.612;55.898;2022-07-01T08:20:01;99159.13;;;28.39;30.12
63773;BME280;49919;53.612;55.898;2022-07-01T08:21:54;99155.63;;;28.61;29.19
63773;BME280;49919;53.612;55.898;2022-07-01T08:23:49;99147.78;;;28.79;29.05
63773;BME280;49919;53.612;55.898;2022-07-01T08:25:39;99147.25;;;28.93;29.46
63773;BME280;49919;53.612;55.898;2022-07-01T08:27:29;99132.63;;;29.31;29.11
63773;BME280;49919;53.612;55.898;2022-07-01T08:29:20;99148.22;;;29.80;27.11
63773;BME280;49919;53.612;55.898;2022-07-01T08:31:09;99145.00;;;30.00;26.79
63773;BME280;49919;53.612;55.898;2022-07-01T08:32:40;99140.69;;;29.99;26.74
63773;BME280;49919;53.612;55.898;2022-07-01T08:34:11;99139.88;;;30.29;25.71
63773;BME280;49919;53.612;55.898;2022-07-01T08:35:42;99151.84;;;30.88;24.90
63773;BME280;49919;53.612;55.898;2022-07-01T08:37:16;99140.28;;;31.09;25.10
63773;BME280;49919;53.612;55.898;2022-07-01T08:38:46;99139.81;;;31.51;24.86
63773;BME280;49919;53.612;55.898;2022-07-01T08:40:19;99140.31;;;32.43;24.23
63773;BME280;49919;53.612;55.898;2022-07-01T08:41:54;99143.97;;;33.29;22.86
63773;BME280;49919;53.612;55.898;2022-07-01T08:43:27;99135.69;;;33.40;21.99
63773;BME280;49919;53.612;55.898;2022-07-01T08:44:58;99138.72;;;33.95;21.51
63773;BME280;49919;53.612;55.898;2022-07-01T08:46:29;99137.16;;;34.70;21.12
63773;BME280;49919;53.612;55.898;2022-07-01T08:48:00;99136.34;;;34.73;20.29
63773;BME280;49919;53.612;55.898;2022-07-01T08:49:31;99128.44;;;34.02;20.62
63773;BME280;49919;53.612;55.898;2022-07-01T08:51:02;99134.88;;;33.50;21.86
63773;BME280;49919;53.612;55.898;2022-07-01T08:52:34;99130.56;;;33.34;21.79
63773;BME280;49919;53.612;55.898;2022-07-01T08:54:06;99134.91;;;33.00;22.19
63773;BME280;49919;53.612;55.898;2022-07-01T08:55:37;99129.38;;;32.79;22.46
63773;BME280;49919;53.612;55.898;2022-07-01T08:57:26;99134.03;;;32.60;22.56
63773;BME280;49919;53.612;55.898;2022-07-01T08:59:00;99136.47;;;33.40;22.12
63773;BME280;49919;53.612;55.898;2022-07-01T09:00:31;99133.63;;;33.90;21.63
63773;BME280;49919;53.612;55.898;2022-07-01T09:02:03;99136.00;;;33.74;21.51
63773;BME280;49919;53.612;55.898;2022-07-01T09:03:35;99132.53;;;33.45;22.00
63773;BME280;49919;53.612;55.898;2022-07-01T09:05:05;99131.69;;;33.72;21.71
63773;BME280;49919;53.612;55.898;2022-07-01T09:06:36;99129.53;;;34.23;21.49
63773;BME280;49919;53.612;55.898;2022-07-01T09:08:07;99134.38;;;34.81;21.32
63773;BME280;49919;53.612;55.898;2022-07-01T09:09:38;99144.13;;;35.41;20.02
63773;BME280;49919;53.612;55.898;2022-07-01T09:11:11;99143.63;;;36.21;19.40
63773;BME280;49919;53.612;55.898;2022-07-01T09:12:41;99140.31;;;36.37;19.74
63773;BME280;49919;53.612;55.898;2022-07-01T09:14:13;99145.00;;;35.72;19.72
63773;BME280;49919;53.612;55.898;2022-07-01T09:15:44;99133.56;;;34.84;20.71
63773;BME280;49919;53.612;55.898;2022-07-01T09:17:18;99136.69;;;34.06;21.38
63773;BME280;49919;53.612;55.898;2022-07-01T09:19:03;99145.91;;;33.07;22.56
63773;BME280;49919;53.612;55.898;2022-07-01T09:20:35;99148.00;;;32.09;23.23
63773;BME280;49919;53.612;55.898;2022-07-01T09:22:06;99142.47;;;31.33;23.64
63773;BME280;49919;53.612;55.898;2022-07-01T09:23:36;99157.03;;;30.96;24.57
63773;BME280;49919;53.612;55.898;2022-07-01T09:25:13;99147.03;;;30.78;24.36
63773;BME280;49919;53.612;55.898;2022-07-01T09:26:54;99147.81;;;30.75;24.35